Time;durP1;ratioP1;P1;durP2;ratioP2;P2;SDS_P1;SDS_P2;PMS_P1;PMS_P2;Temp;Humidity;BMP_temperature;BMP_pressure;BME280_temperature;BME280_humidity;BME280_pressure;Samples;Min_cycle;Max_cycle;Signal;HPM_P1;HPM_P2
2021/09/20 00:00:44;;;;;;;7.63;6.83;;;15.30;99.90;;;;;;4972749;28;20267;-63
2021/09/20 00:03:10;;;;;;;7.83;7.23;;;15.30;99.90;;;;;;4973633;28;20263;-64
2021/09/20 00:05:36;;;;;;;7.70;6.77;;;15.40;99.90;;;;;;4973223;28;20662;-63
2021/09/20 00:08:02;;;;;;;7.63;7.03;;;15.30;99.90;;;;;;4973281;28;20204;-64
2021/09/20 00:10:28;;;;;;;7.87;7.17;;;15.40;99.90;;;;;;4973207;28;20469;-63
2021/09/20 00:12:53;;;;;;;8.30;7.50;;;15.30;99.90;;;;;;4973273;28;20436;-63
2021/09/20 00:15:19;;;;;;;7.07;6.47;;;15.20;99.90;;;;;;4973068;28;20191;-63
2021/09/20 00:17:45;;;;;;;8.30;7.60;;;15.30;99.90;;;;;;4955726;28;20176;-63
2021/09/20 00:20:12;;;;;;;7.93;7.10;;;15.20;99.90;;;;;;4973038;28;20283;-63
2021/09/20 00:22:37;;;;;;;10.13;7.00;;;15.20;99.90;;;;;;4973165;28;20200;-63
2021/09/20 00:25:04;;;;;;;7.73;7.03;;;15.10;99.90;;;;;;4955847;28;20428;-63
2021/09/20 00:27:30;;;;;;;7.67;7.07;;;15.20;99.90;;;;;;4972924;28;20222;-63
2021/09/20 00:29:55;;;;;;;7.60;6.80;;;15.10;99.90;;;;;;4972785;28;20914;-63
2021/09/20 00:32:21;;;;;;;7.93;7.23;;;15.10;99.90;;;;;;4955545;28;20236;-63
2021/09/20 00:34:47;;;;;;;10.60;9.27;;;15.00;99.90;;;;;;4972890;28;20187;-64
2021/09/20 00:37:12;;;;;;;9.83;8.40;;;15.00;99.90;;;;;;4972684;28;20180;-63
2021/09/20 00:39:39;;;;;;;8.57;7.77;;;14.80;99.90;;;;;;4972529;28;20654;-63
2021/09/20 00:42:05;;;;;;;7.50;6.77;;;14.60;99.90;;;;;;4955655;28;20196;-63
2021/09/20 00:44:31;;;;;;;8.30;7.00;;;14.70;99.90;;;;;;4955324;28;20648;-63
2021/09/20 00:46:57;;;;;;;7.93;7.13;;;14.60;99.90;;;;;;4974959;28;20463;-63
2021/09/20 00:49:22;;;;;;;7.33;6.67;;;14.80;99.90;;;;;;4976815;28;20458;-63
2021/09/20 00:51:48;;;;;;;7.80;7.10;;;14.80;99.90;;;;;;4976648;28;20639;-63
2021/09/20 00:54:13;;;;;;;7.70;7.00;;;14.80;99.90;;;;;;4976814;28;20264;-63
2021/09/20 00:56:39;;;;;;;7.60;6.90;;;14.80;99.90;;;;;;4959292;28;20172;-61
2021/09/20 00:59:05;;;;;;;7.80;7.10;;;14.80;99.90;;;;;;4958956;28;20173;-63
2021/09/20 01:01:32;;;;;;;7.60;6.90;;;14.90;99.90;;;;;;4976298;28;20522;-63
2021/09/20 01:03:57;;;;;;;7.70;7.00;;;14.90;99.90;;;;;;4976792;28;20179;-63
2021/09/20 01:06:23;;;;;;;7.80;7.10;;;15.00;99.90;;;;;;4976408;28;20435;-63
2021/09/20 01:08:49;;;;;;;6.93;6.33;;;15.00;99.90;;;;;;4976245;28;20172;-63
2021/09/20 01:11:15;;;;;;;9.93;7.30;;;15.00;99.90;;;;;;4976296;28;20671;-63
2021/09/20 01:13:40;;;;;;;8.70;7.90;;;15.10;99.90;;;;;;4976353;28;20175;-64
2021/09/20 01:16:06;;;;;;;7.90;7.03;;;15.00;99.90;;;;;;4976237;28;20435;-64
2021/09/20 01:18:31;;;;;;;8.40;7.60;;;15.00;99.90;;;;;;4976005;28;20184;-63
2021/09/20 01:20:57;;;;;;;8.07;7.10;;;14.90;99.90;;;;;;4976244;28;20196;-63
2021/09/20 01:23:22;;;;;;;9.63;8.73;;;14.90;99.90;;;;;;4976078;28;20641;-64
2021/09/20 01:25:48;;;;;;;7.53;6.90;;;14.90;99.90;;;;;;4976230;28;20190;-63
2021/09/20 01:28:14;;;;;;;8.17;7.47;;;14.90;99.90;;;;;;4975489;28;20184;-64
2021/09/20 01:30:39;;;;;;;7.97;7.20;;;14.70;99.90;;;;;;4976165;28;20188;-63
2021/09/20 01:33:05;;;;;;;6.57;6.00;;;14.90;99.90;;;;;;4976250;28;20168;-63
2021/09/20 01:35:31;;;;;;;7.40;6.70;;;14.90;99.90;;;;;;4975366;28;20176;-63
2021/09/20 01:37:56;;;;;;;8.27;7.37;;;15.00;99.90;;;;;;4975434;28;20185;-63
2021/09/20 01:40:22;;;;;;;8.00;7.27;;;15.00;99.90;;;;;;4976084;28;20172;-63
2021/09/20 01:42:48;;;;;;;7.17;6.57;;;14.90;99.90;;;;;;4975672;28;20502;-63
2021/09/20 01:45:15;;;;;;;8.63;6.30;;;14.90;99.90;;;;;;4975619;28;20435;-63
2021/09/20 01:47:42;;;;;;;7.97;7.27;;;14.90;99.90;;;;;;4975314;28;20603;-64
2021/09/20 01:50:10;;;;;;;7.80;7.10;;;14.70;99.90;;;;;;4975460;28;20503;-63
2021/09/20 01:52:36;;;;;;;8.30;7.40;;;14.70;99.90;;;;;;4958411;28;20471;-63
2021/09/20 01:55:04;;;;;;;8.03;7.33;;;14.60;99.90;;;;;;4975658;28;20518;-63
2021/09/20 01:57:30;;;;;;;7.50;6.80;;;14.70;99.90;;;;;;4975306;28;20426;-63
2021/09/20 01:59:55;;;;;;;8.93;8.03;;;14.70;99.90;;;;;;4975246;28;20435;-63
2021/09/20 02:02:21;;;;;;;10.20;7.50;;;14.60;99.90;;;;;;4975396;28;20215;-63
2021/09/20 02:04:47;;;;;;;8.87;8.20;;;14.60;99.90;;;;;;4975076;28;20184;-63
2021/09/20 02:07:12;;;;;;;8.30;7.60;;;14.50;99.90;;;;;;4975497;28;20172;-63
2021/09/20 02:09:38;;;;;;;7.70;7.00;;;14.50;99.90;;;;;;4975297;28;20184;-63
2021/09/20 02:12:03;;;;;;;8.30;7.60;;;14.60;99.90;;;;;;4975439;28;20258;-63
2021/09/20 02:14:29;;;;;;;7.70;7.00;;;14.70;99.90;;;;;;4974966;28;20547;-63
2021/09/20 02:16:55;;;;;;;7.30;6.70;;;14.70;99.90;;;;;;4975108;28;20232;-63
2021/09/20 02:19:20;;;;;;;8.37;7.57;;;14.80;99.90;;;;;;4975023;28;20287;-62
2021/09/20 02:21:46;;;;;;;6.77;6.17;;;14.80;99.90;;;;;;4957977;28;20488;-63
2021/09/20 02:24:11;;;;;;;7.47;6.83;;;14.80;99.90;;;;;;4975041;28;20267;-64
2021/09/20 02:26:38;;;;;;;8.13;7.43;;;14.80;99.90;;;;;;4975080;28;20259;-63
2021/09/20 02:29:04;;;;;;;8.50;7.80;;;14.80;99.90;;;;;;4974542;28;20183;-63
2021/09/20 02:31:30;;;;;;;8.43;6.60;;;14.80;99.90;;;;;;4957358;28;20467;-63
2021/09/20 02:33:56;;;;;;;9.83;7.50;;;15.00;99.90;;;;;;4957520;28;20496;-63
2021/09/20 02:36:22;;;;;;;7.40;6.80;;;14.80;99.90;;;;;;4975008;28;20956;-63
2021/09/20 02:38:47;;;;;;;7.33;6.63;;;14.90;99.90;;;;;;4974670;28;20180;-63
2021/09/20 02:41:14;;;;;;;8.40;7.70;;;14.90;99.90;;;;;;4974744;28;20208;-63
2021/09/20 02:43:39;;;;;;;9.33;8.53;;;14.80;99.90;;;;;;4974678;28;20199;-63
2021/09/20 02:46:05;;;;;;;8.80;8.10;;;14.80;99.90;;;;;;4974498;28;20933;-63
2021/09/20 02:48:31;;;;;;;8.80;7.90;;;14.60;99.90;;;;;;4974329;28;20185;-63
2021/09/20 02:50:57;;;;;;;8.77;8.00;;;14.60;99.90;;;;;;4974623;28;20506;-63
2021/09/20 02:53:23;;;;;;;7.60;6.97;;;14.40;99.90;;;;;;4957461;28;20606;-63
2021/09/20 02:55:49;;;;;;;7.07;6.47;;;14.60;99.90;;;;;;4974572;28;20435;-63
2021/09/20 02:58:14;;;;;;;6.93;6.37;;;14.60;99.90;;;;;;4974145;28;20180;-63
2021/09/20 03:00:40;;;;;;;7.57;6.87;;;14.70;99.90;;;;;;4974242;28;20261;-63
2021/09/20 03:03:07;;;;;;;7.90;7.20;;;14.60;99.90;;;;;;4974593;28;20210;-63
2021/09/20 03:05:33;;;;;;;7.97;7.27;;;14.70;99.90;;;;;;4974469;28;20172;-63
2021/09/20 03:07:59;;;;;;;8.00;7.23;;;14.80;99.90;;;;;;4974573;28;20942;-63
2021/09/20 03:10:24;;;;;;;9.20;8.30;;;14.80;99.90;;;;;;4955699;28;20490;-63
2021/09/20 03:12:50;;;;;;;8.17;7.43;;;14.60;99.90;;;;;;4956626;28;20200;-63
2021/09/20 03:15:15;;;;;;;8.07;7.27;;;14.60;99.90;;;;;;4956608;28;20181;-63
2021/09/20 03:17:41;;;;;;;8.60;7.90;;;14.60;99.90;;;;;;4973797;28;20215;-63
2021/09/20 03:20:08;;;;;;;7.97;7.17;;;14.50;99.90;;;;;;4974027;28;20176;-63
2021/09/20 03:22:33;;;;;;;8.20;7.47;;;14.50;99.90;;;;;;4973989;28;20200;-63
2021/09/20 03:24:59;;;;;;;7.37;6.87;;;14.40;99.90;;;;;;4956539;28;20434;-63
2021/09/20 03:27:24;;;;;;;7.30;6.70;;;14.30;99.90;;;;;;4973771;28;20176;-63
2021/09/20 03:29:50;;;;;;;9.13;8.23;;;14.30;99.90;;;;;;4973666;28;20653;-63
2021/09/20 03:32:16;;;;;;;7.10;6.40;;;14.30;99.90;;;;;;4956561;28;20204;-63
2021/09/20 03:34:41;;;;;;;7.20;6.50;;;14.30;99.90;;;;;;4973538;28;20176;-63
2021/09/20 03:37:07;;;;;;;8.37;7.67;;;14.40;99.90;;;;;;4973585;28;20176;-63
2021/09/20 03:39:32;;;;;;;8.83;7.77;;;14.50;99.90;;;;;;4973550;28;20551;-64
2021/09/20 03:41:58;;;;;;;7.87;7.27;;;14.40;99.90;;;;;;4973912;28;20207;-63
2021/09/20 03:44:23;;;;;;;8.57;7.83;;;14.30;99.90;;;;;;4973309;28;20169;-64
2021/09/20 03:46:49;;;;;;;8.60;7.27;;;14.20;99.90;;;;;;4974120;28;20266;-63
2021/09/20 03:49:15;;;;;;;8.60;7.80;;;14.30;99.90;;;;;;4973233;28;20184;-63
2021/09/20 03:51:41;;;;;;;7.17;6.60;;;14.30;99.90;;;;;;4973459;28;20230;-62
2021/09/20 03:54:06;;;;;;;7.83;7.23;;;14.40;99.90;;;;;;4973423;28;20173;-64
2021/09/20 03:56:32;;;;;;;7.97;7.17;;;14.40;99.90;;;;;;4973236;28;20510;-64
2021/09/20 03:58:57;;;;;;;7.90;7.20;;;14.40;99.90;;;;;;4973153;28;20178;-63
2021/09/20 04:01:23;;;;;;;8.67;7.77;;;14.40;99.90;;;;;;4973810;28;20216;-63
2021/09/20 04:03:48;;;;;;;8.10;7.30;;;14.50;99.90;;;;;;4973285;28;20528;-63
2021/09/20 04:06:14;;;;;;;7.97;7.17;;;14.50;99.90;;;;;;4973152;28;20188;-63
2021/09/20 04:08:40;;;;;;;7.60;7.00;;;14.50;99.90;;;;;;4972913;28;20263;-63
2021/09/20 04:11:06;;;;;;;7.40;6.80;;;14.40;99.90;;;;;;4972868;28;20573;-63
2021/09/20 04:13:31;;;;;;;8.47;7.67;;;14.40;99.90;;;;;;4973036;28;20439;-62
2021/09/20 04:15:57;;;;;;;7.60;6.80;;;14.50;99.90;;;;;;4973012;28;20188;-63
2021/09/20 04:18:28;;;;;;;8.50;7.57;;;14.50;99.90;;;;;;4972753;28;20544;-62
2021/09/20 04:20:55;;;;;;;7.00;6.30;;;14.60;99.90;;;;;;4972034;28;20300;-63
2021/09/20 04:23:22;;;;;;;8.10;6.77;;;14.60;99.90;;;;;;4973337;28;20499;-63
2021/09/20 04:25:49;;;;;;;8.00;7.10;;;14.50;99.90;;;;;;4973209;28;20788;-63
2021/09/20 04:28:15;;;;;;;8.73;7.67;;;14.50;99.90;;;;;;4972283;28;20795;-63
2021/09/20 04:30:43;;;;;;;7.47;6.87;;;14.40;99.90;;;;;;4972370;28;20467;-63
2021/09/20 04:33:17;;;;;;;8.10;7.40;;;14.40;99.90;;;;;;4972710;28;20534;-63
2021/09/20 04:35:44;;;;;;;8.13;7.33;;;14.40;99.90;;;;;;4973111;28;20426;-63
2021/09/20 04:38:11;;;;;;;7.53;6.87;;;14.40;99.90;;;;;;4972664;28;20431;-62
2021/09/20 04:40:37;;;;;;;7.77;7.07;;;14.40;99.90;;;;;;4972801;28;20530;-63
2021/09/20 04:43:04;;;;;;;8.07;7.40;;;14.40;99.90;;;;;;4973051;28;20451;-63
2021/09/20 04:45:29;;;;;;;7.83;7.03;;;14.40;99.90;;;;;;4972386;28;20439;-62
2021/09/20 04:47:55;;;;;;;7.47;6.87;;;14.30;99.90;;;;;;4972518;28;20443;-63
2021/09/20 04:50:21;;;;;;;8.13;6.77;;;14.40;99.90;;;;;;4972877;28;20264;-63
2021/09/20 04:52:47;;;;;;;10.90;8.50;;;14.40;99.90;;;;;;4972915;28;20530;-63
2021/09/20 04:55:12;;;;;;;8.37;7.57;;;14.40;99.90;;;;;;4972843;28;20180;-62
2021/09/20 04:57:38;;;;;;;11.60;7.40;;;14.40;99.90;;;;;;4972418;28;20168;-62
2021/09/20 05:00:05;;;;;;;12.20;11.20;;;14.50;99.90;;;;;;4972645;28;20786;-63
2021/09/20 05:02:31;;;;;;;20.73;8.87;;;14.30;99.90;;;;;;4972689;28;20240;-62
2021/09/20 05:04:56;;;;;;;10.83;8.30;;;14.20;99.90;;;;;;4972882;28;20858;-63
2021/09/20 05:07:22;;;;;;;9.40;8.17;;;14.10;99.90;;;;;;4972625;28;20267;-63
2021/09/20 05:09:48;;;;;;;9.40;8.50;;;14.20;99.90;;;;;;4972610;28;20263;-61
2021/09/20 05:12:13;;;;;;;7.80;7.10;;;14.30;99.90;;;;;;4972340;28;20216;-63
2021/09/20 05:14:39;;;;;;;8.90;8.10;;;14.40;99.90;;;;;;4972323;28;20450;-61
2021/09/20 05:17:05;;;;;;;10.60;9.50;;;14.50;99.90;;;;;;4972727;28;20539;-63
2021/09/20 05:19:30;;;;;;;8.80;7.90;;;14.60;99.90;;;;;;4972272;28;20184;-62
2021/09/20 05:21:57;;;;;;;8.00;7.20;;;14.60;99.90;;;;;;4972548;28;20208;-63
2021/09/20 05:24:23;;;;;;;8.17;7.03;;;14.60;99.90;;;;;;4972432;28;20180;-62
2021/09/20 05:26:49;;;;;;;8.60;7.80;;;14.60;99.90;;;;;;4972072;28;20498;-63
2021/09/20 05:29:14;;;;;;;9.40;8.53;;;14.60;99.90;;;;;;4959268;28;20185;-63
2021/09/20 05:31:40;;;;;;;10.50;9.50;;;14.60;99.90;;;;;;4953256;28;20295;-63
2021/09/20 05:34:06;;;;;;;8.33;7.43;;;14.60;99.90;;;;;;4975998;28;20700;-62
2021/09/20 05:36:32;;;;;;;9.83;8.10;;;14.60;99.90;;;;;;4976101;28;20538;-63
2021/09/20 05:38:57;;;;;;;8.20;7.50;;;14.60;99.90;;;;;;4976203;28;20176;-63
2021/09/20 05:41:23;;;;;;;10.93;7.57;;;14.60;99.90;;;;;;4976000;28;20251;-63
2021/09/20 05:43:48;;;;;;;8.70;7.90;;;14.60;99.90;;;;;;4975936;28;20243;-62
2021/09/20 05:46:14;;;;;;;9.67;8.77;;;14.70;99.90;;;;;;4939564;29;20216;-62
2021/09/20 05:48:39;;;;;;;9.13;8.33;;;14.70;99.90;;;;;;4956429;29;20181;-62
2021/09/20 05:51:05;;;;;;;9.03;8.13;;;14.70;99.90;;;;;;4956416;29;20200;-62
2021/09/20 05:53:31;;;;;;;7.90;7.20;;;14.80;99.90;;;;;;4956514;29;20181;-62
2021/09/20 05:55:56;;;;;;;9.80;8.60;;;14.80;99.90;;;;;;4968802;28;20433;-62
2021/09/20 05:58:22;;;;;;;10.90;8.70;;;14.80;99.90;;;;;;4983139;28;20216;-63
2021/09/20 06:00:48;;;;;;;9.60;8.60;;;14.80;99.90;;;;;;4975582;28;20168;-63
2021/09/20 06:03:14;;;;;;;11.27;10.13;;;14.80;99.90;;;;;;4993771;28;20631;-63
2021/09/20 06:05:40;;;;;;;11.23;9.70;;;14.80;99.90;;;;;;4995046;28;20455;-63
2021/09/20 06:08:07;;;;;;;10.70;9.80;;;14.90;99.90;;;;;;4994690;28;20195;-63
2021/09/20 06:10:33;;;;;;;10.73;9.93;;;15.00;99.90;;;;;;4978576;28;20434;-63
2021/09/20 06:12:58;;;;;;;11.83;10.83;;;15.00;99.90;;;;;;4975438;28;20419;-63
2021/09/20 06:15:24;;;;;;;13.83;12.67;;;15.20;99.90;;;;;;4993558;28;20783;-63
2021/09/20 06:17:49;;;;;;;11.37;10.33;;;15.20;99.90;;;;;;4994622;28;20172;-63
2021/09/20 06:20:15;;;;;;;11.87;10.77;;;15.30;99.90;;;;;;4994809;28;20180;-62
2021/09/20 06:22:41;;;;;;;14.13;12.97;;;15.20;99.90;;;;;;4975915;28;20224;-63
2021/09/20 06:25:08;;;;;;;13.60;12.20;;;15.20;99.90;;;;;;4975361;28;20451;-63
2021/09/20 06:27:34;;;;;;;13.67;12.40;;;15.30;99.90;;;;;;4974554;28;20463;-63
2021/09/20 06:30:01;;;;;;;12.17;10.90;;;15.20;99.90;;;;;;4974861;28;20821;-63
2021/09/20 06:32:26;;;;;;;8.80;7.97;;;15.20;99.90;;;;;;4974959;28;20467;-65
2021/09/20 06:34:52;;;;;;;8.60;7.90;;;15.20;99.90;;;;;;4974792;28;20432;-65
2021/09/20 06:37:17;;;;;;;8.20;7.40;;;15.40;99.90;;;;;;4974016;28;20176;-64
2021/09/20 06:39:43;;;;;;;11.33;9.40;;;15.50;99.90;;;;;;4974487;28;20634;-64
2021/09/20 06:42:08;;;;;;;8.67;7.87;;;15.50;99.90;;;;;;4974455;28;20698;-63
2021/09/20 06:44:35;;;;;;;8.13;7.20;;;15.60;99.90;;;;;;4973927;28;20539;-63
2021/09/20 06:47:01;;;;;;;8.93;7.90;;;15.70;99.90;;;;;;4974838;28;20176;-64
2021/09/20 06:49:26;;;;;;;8.63;7.90;;;15.90;99.90;;;;;;4956259;28;20769;-64
2021/09/20 06:51:52;;;;;;;13.27;11.60;;;15.90;99.90;;;;;;4955341;29;20216;-65
2021/09/20 06:54:19;;;;;;;11.73;10.73;;;16.00;99.90;;;;;;4955474;29;20169;-64
2021/09/20 06:56:45;;;;;;;9.27;8.47;;;16.10;99.90;;;;;;4955316;29;20173;-64
2021/09/20 06:59:11;;;;;;;7.93;7.23;;;16.20;99.90;;;;;;4954869;29;20424;-64
2021/09/20 07:01:36;;;;;;;8.70;8.00;;;16.20;99.90;;;;;;4969018;28;20475;-64
2021/09/20 07:04:02;;;;;;;8.87;8.17;;;16.30;99.90;;;;;;4971237;28;20446;-64
2021/09/20 07:06:28;;;;;;;7.87;7.17;;;16.30;99.90;;;;;;4962032;28;20204;-64
2021/09/20 07:08:53;;;;;;;9.23;8.40;;;16.40;99.90;;;;;;4971351;28;20267;-63
2021/09/20 07:11:19;;;;;;;12.10;9.07;;;16.40;99.90;;;;;;4974379;28;20518;-63
2021/09/20 07:13:45;;;;;;;9.27;8.33;;;16.50;99.90;;;;;;4974347;28;20168;-64
2021/09/20 07:16:10;;;;;;;10.63;8.70;;;16.50;99.90;;;;;;4973495;28;20216;-64
2021/09/20 07:18:36;;;;;;;11.53;9.63;;;16.60;99.90;;;;;;4972965;28;20173;-65
2021/09/20 07:21:01;;;;;;;10.43;9.57;;;16.60;99.90;;;;;;4973437;28;20192;-64
2021/09/20 07:23:27;;;;;;;10.93;9.93;;;16.70;99.90;;;;;;4973057;28;20176;-63
2021/09/20 07:25:52;;;;;;;10.73;9.60;;;16.50;99.90;;;;;;4973901;28;20180;-64
2021/09/20 07:28:18;;;;;;;14.57;13.23;;;16.30;99.90;;;;;;4973622;28;20251;-64
2021/09/20 07:30:44;;;;;;;12.17;10.97;;;16.30;99.90;;;;;;4974126;28;20646;-63
2021/09/20 07:33:10;;;;;;;12.33;11.13;;;16.30;99.90;;;;;;4974084;28;20204;-63
2021/09/20 07:35:36;;;;;;;11.90;10.80;;;16.40;99.90;;;;;;4974001;28;20419;-63
2021/09/20 07:38:02;;;;;;;11.77;10.57;;;16.50;99.90;;;;;;4973381;28;20847;-63
2021/09/20 07:40:28;;;;;;;9.90;8.80;;;16.60;99.90;;;;;;4973691;28;20184;-63
2021/09/20 07:42:58;;;;;;;12.93;11.63;;;16.70;99.90;;;;;;4973545;28;20986;-64
2021/09/20 07:45:25;;;;;;;11.47;10.40;;;16.70;99.90;;;;;;4973659;28;20408;-63
2021/09/20 07:47:51;;;;;;;15.97;11.67;;;16.70;99.90;;;;;;4973390;28;20430;-63
2021/09/20 07:50:18;;;;;;;13.63;12.33;;;16.60;99.90;;;;;;4973232;28;20424;-63
2021/09/20 07:52:45;;;;;;;12.63;11.47;;;16.70;99.90;;;;;;4963832;28;20482;-64
2021/09/20 07:55:12;;;;;;;11.93;10.80;;;16.80;99.90;;;;;;4954091;28;20432;-64
2021/09/20 07:57:37;;;;;;;12.27;11.07;;;16.90;99.90;;;;;;4953916;29;20416;-64
2021/09/20 08:00:04;;;;;;;12.57;11.30;;;16.90;99.90;;;;;;4954429;29;20416;-64
2021/09/20 08:02:30;;;;;;;11.57;10.37;;;17.00;99.90;;;;;;4954072;29;20581;-64
2021/09/20 08:04:55;;;;;;;12.40;11.20;;;17.20;99.90;;;;;;4954181;29;20424;-64
2021/09/20 08:07:21;;;;;;;12.40;11.20;;;17.20;99.90;;;;;;4954329;29;20220;-63
2021/09/20 08:09:46;;;;;;;14.17;12.77;;;17.20;99.90;;;;;;4964070;28;20271;-64
2021/09/20 08:12:12;;;;;;;15.93;14.40;;;17.30;99.90;;;;;;4973472;28;20294;-64
2021/09/20 08:14:39;;;;;;;14.53;12.50;;;17.20;99.90;;;;;;4973349;28;20172;-63
2021/09/20 08:17:04;;;;;;;15.57;11.27;;;17.10;99.90;;;;;;4972459;28;20175;-63
2021/09/20 08:19:30;;;;;;;13.00;11.80;;;17.00;99.90;;;;;;4972981;28;20420;-63
2021/09/20 08:21:56;;;;;;;14.87;13.37;;;17.00;99.90;;;;;;4964359;28;20576;-64
2021/09/20 08:24:21;;;;;;;15.30;12.70;;;17.00;99.90;;;;;;4953966;29;20185;-63
2021/09/20 08:26:47;;;;;;;14.73;13.10;;;17.00;99.90;;;;;;4954119;29;20689;-64
2021/09/20 08:29:13;;;;;;;14.67;13.27;;;17.20;99.90;;;;;;4961539;28;20646;-64
2021/09/20 08:31:38;;;;;;;25.63;13.97;;;17.20;99.90;;;;;;4972925;28;20269;-64
2021/09/20 08:34:04;;;;;;;16.47;14.70;;;17.10;99.90;;;;;;4972350;28;20176;-63
2021/09/20 08:36:29;;;;;;;17.80;16.10;;;17.50;99.90;;;;;;4972617;28;20701;-64
2021/09/20 08:38:55;;;;;;;14.90;13.40;;;17.50;99.90;;;;;;4972828;28;20530;-64
2021/09/20 08:41:21;;;;;;;12.90;11.50;;;17.60;99.90;;;;;;4973045;28;20287;-64
2021/09/20 08:43:48;;;;;;;15.30;13.80;;;17.60;99.90;;;;;;4973136;28;20259;-63
2021/09/20 08:46:14;;;;;;;15.07;13.67;;;17.60;99.90;;;;;;4973053;28;20503;-64
2021/09/20 08:48:42;;;;;;;14.50;13.00;;;17.50;99.90;;;;;;4972810;28;20507;-63
2021/09/20 08:51:09;;;;;;;13.97;11.47;;;17.50;99.90;;;;;;4972837;28;20216;-64
2021/09/20 08:53:35;;;;;;;13.10;11.70;;;17.60;99.90;;;;;;4973099;28;20480;-63
2021/09/20 08:56:00;;;;;;;15.13;13.53;;;17.80;99.90;;;;;;4955725;28;20431;-64
2021/09/20 08:58:27;;;;;;;15.10;13.73;;;17.90;99.90;;;;;;4972655;28;20172;-63
2021/09/20 09:00:53;;;;;;;14.23;12.73;;;18.00;99.90;;;;;;4972206;28;20618;-64
2021/09/20 09:03:20;;;;;;;15.23;13.60;;;18.00;99.90;;;;;;4972697;28;20427;-63
2021/09/20 09:05:47;;;;;;;15.77;14.23;;;18.30;99.90;;;;;;4972745;28;20431;-64
2021/09/20 09:08:17;;;;;;;15.97;14.40;;;18.30;99.90;;;;;;4974879;28;20423;-64
2021/09/20 09:10:44;;;;;;;16.60;15.00;;;18.30;99.90;;;;;;4959261;28;20452;-64
2021/09/20 09:13:11;;;;;;;17.50;15.53;;;18.30;99.90;;;;;;4959125;28;20912;-64
2021/09/20 09:15:37;;;;;;;20.20;15.93;;;18.30;99.90;;;;;;4976973;28;20498;-63
2021/09/20 09:18:04;;;;;;;18.00;14.60;;;18.20;99.90;;;;;;4976247;28;20897;-64
2021/09/20 09:20:36;;;;;;;16.33;14.20;;;18.20;99.90;;;;;;4963004;28;20454;-64
2021/09/20 09:23:03;;;;;;;15.27;13.87;;;18.30;99.90;;;;;;4959463;28;20423;-64
2021/09/20 09:25:39;;;;;;;18.07;14.10;;;18.40;99.90;;;;;;4970777;28;20440;-64
2021/09/20 09:28:30;;;;;;;15.17;13.67;;;18.50;99.90;;;;;;4957911;28;20416;-63
2021/09/20 09:30:59;;;;;;;14.33;12.93;;;18.50;99.90;;;;;;4974143;28;20475;-64
2021/09/20 09:33:36;;;;;;;16.47;14.77;;;18.40;99.90;;;;;;4976210;28;20415;-64
2021/09/20 09:36:03;;;;;;;15.40;12.40;;;18.40;99.90;;;;;;4976263;28;20407;-64
2021/09/20 09:38:28;;;;;;;16.40;14.00;;;18.50;99.90;;;;;;4975480;28;20547;-64
2021/09/20 09:40:58;;;;;;;15.40;14.00;;;18.50;99.90;;;;;;4976161;28;20968;-64
2021/09/20 09:43:32;;;;;;;15.07;13.67;;;18.70;99.90;;;;;;4975976;28;20183;-64
2021/09/20 09:46:00;;;;;;;15.60;14.07;;;18.90;99.90;;;;;;4976173;28;20415;-64
2021/09/20 09:48:29;;;;;;;17.43;15.73;;;18.80;99.90;;;;;;4975237;28;20497;-64
2021/09/20 09:51:00;;;;;;;15.60;14.10;;;18.50;99.90;;;;;;4977833;28;20474;-64
2021/09/20 09:53:33;;;;;;;16.53;14.97;;;18.60;99.90;;;;;;4976358;28;20453;-63
2021/09/20 09:56:13;;;;;;;16.73;15.27;;;18.30;99.90;;;;;;4975860;28;20459;-63
2021/09/20 09:58:57;;;;;;;17.33;15.80;;;18.20;99.90;;;;;;4975729;28;20415;-63
2021/09/20 10:01:35;;;;;;;16.30;14.03;;;18.30;99.90;;;;;;4975577;28;20897;-64
2021/09/20 10:04:16;;;;;;;15.67;13.70;;;18.50;99.90;;;;;;4976231;28;20427;-63
2021/09/20 10:06:41;;;;;;;17.70;14.67;;;18.70;99.90;;;;;;4980871;28;20434;-63
2021/09/20 10:09:08;;;;;;;17.90;14.77;;;18.70;99.90;;;;;;4983059;28;20427;-63
2021/09/20 10:11:35;;;;;;;17.20;15.50;;;18.80;99.90;;;;;;4985729;28;20208;-64
2021/09/20 10:14:01;;;;;;;16.27;14.77;;;18.90;99.90;;;;;;4962219;28;21009;-64
2021/09/20 10:16:27;;;;;;;15.10;13.80;;;18.90;99.90;;;;;;4994920;28;20970;-63
2021/09/20 10:18:53;;;;;;;16.27;14.57;;;19.00;99.90;;;;;;4965943;28;20432;-63
2021/09/20 10:21:19;;;;;;;15.33;13.83;;;18.90;99.90;;;;;;4975049;28;20517;-63
2021/09/20 10:23:44;;;;;;;14.63;13.37;;;18.90;99.90;;;;;;4975434;28;20431;-63
2021/09/20 10:26:10;;;;;;;15.73;14.13;;;18.80;99.90;;;;;;4975195;28;20278;-64
2021/09/20 10:28:36;;;;;;;15.40;13.80;;;18.90;99.90;;;;;;4975285;28;20184;-63
2021/09/20 10:31:02;;;;;;;15.67;11.97;;;18.90;99.90;;;;;;4965278;28;20300;-63
2021/09/20 10:33:28;;;;;;;16.03;14.43;;;18.80;99.90;;;;;;4968466;28;20176;-63
2021/09/20 10:35:54;;;;;;;18.90;17.00;;;18.80;99.90;;;;;;4959543;28;20456;-63
2021/09/20 10:38:20;;;;;;;16.47;14.77;;;18.80;99.90;;;;;;4955590;29;20169;-64
2021/09/20 10:41:05;;;;;;;18.37;16.67;;;18.80;99.90;;;;;;4955830;29;20503;-63
2021/09/20 10:43:31;;;;;;;16.73;15.13;;;18.50;99.90;;;;;;4955909;29;20267;-64
2021/09/20 10:45:56;;;;;;;17.30;15.60;;;18.50;99.90;;;;;;4969983;28;20481;-64
2021/09/20 10:48:22;;;;;;;17.73;15.83;;;18.40;99.90;;;;;;4974620;28;20184;-64
2021/09/20 10:51:13;;;;;;;17.83;16.03;;;18.50;99.90;;;;;;4975010;28;20196;-64
2021/09/20 10:53:40;;;;;;;18.97;17.17;;;18.20;99.90;;;;;;4975317;28;20226;-64
2021/09/20 10:56:07;;;;;;;18.57;16.67;;;18.00;99.90;;;;;;4974134;28;20539;-63
2021/09/20 10:58:32;;;;;;;18.63;16.83;;;17.80;99.90;;;;;;4964274;28;20482;-63
2021/09/20 11:01:16;;;;;;;19.77;17.77;;;17.80;99.90;;;;;;4961422;28;20467;-63
2021/09/20 11:03:47;;;;;;;18.90;17.00;;;17.90;99.90;;;;;;4973146;28;20262;-63
2021/09/20 11:06:31;;;;;;;18.33;16.43;;;17.90;99.90;;;;;;4970405;28;20454;-63
2021/09/20 11:08:59;;;;;;;17.53;15.83;;;18.30;99.90;;;;;;4974354;28;20428;-63
2021/09/20 11:11:47;;;;;;;18.63;16.80;;;18.30;99.90;;;;;;4957122;28;20550;-63
2021/09/20 11:14:18;;;;;;;18.20;16.30;;;18.60;99.90;;;;;;4973082;28;20420;-63
2021/09/20 11:16:54;;;;;;;18.53;16.80;;;18.70;99.90;;;;;;4965613;28;20432;-63
2021/09/20 11:19:28;;;;;;;19.07;15.43;;;18.90;99.90;;;;;;4968998;28;20467;-63
2021/09/20 11:22:03;;;;;;;17.13;15.63;;;19.20;99.90;;;;;;4955925;28;20448;-63
2021/09/20 11:24:31;;;;;;;18.17;16.40;;;19.10;99.90;;;;;;4968859;28;20423;-64
2021/09/20 11:26:56;;;;;;;18.63;15.40;;;19.10;99.90;;;;;;4972692;28;20447;-63
2021/09/20 11:29:26;;;;;;;17.30;15.50;;;19.20;99.90;;;;;;4973946;28;20462;-63
2021/09/20 11:31:53;;;;;;;16.80;15.30;;;19.10;99.90;;;;;;4972281;28;20282;-64
2021/09/20 11:34:32;;;;;;;17.03;15.23;;;19.20;99.90;;;;;;4973628;28;20454;-64
2021/09/20 11:37:20;;;;;;;16.47;14.87;;;19.30;99.90;;;;;;4973613;28;20485;-63
2021/09/20 11:40:02;;;;;;;17.87;16.20;;;19.60;99.90;;;;;;4973431;28;20431;-63
2021/09/20 11:42:37;;;;;;;17.20;15.20;;;19.80;99.90;;;;;;4973412;28;20463;-63
2021/09/20 11:45:18;;;;;;;16.17;14.67;;;20.00;99.90;;;;;;4973201;28;20439;-64
2021/09/20 11:47:49;;;;;;;15.43;14.00;;;20.10;99.90;;;;;;4971745;28;20433;-64
2021/09/20 11:50:22;;;;;;;15.97;14.47;;;20.30;99.90;;;;;;4972896;28;20514;-63
2021/09/20 11:52:51;;;;;;;15.50;14.00;;;20.70;99.90;;;;;;4973066;28;20566;-64
2021/09/20 11:55:21;;;;;;;15.97;14.17;;;21.10;99.90;;;;;;4973245;28;20933;-64
2021/09/20 11:58:07;;;;;;;15.40;14.00;;;20.90;99.90;;;;;;4972917;28;20482;-64
2021/09/20 12:00:35;;;;;;;15.50;14.10;;;20.80;99.90;;;;;;4972759;28;20442;-64
2021/09/20 12:03:04;;;;;;;15.70;13.63;;;21.10;99.90;;;;;;4973204;28;20434;-64
2021/09/20 12:05:35;;;;;;;16.70;15.23;;;21.00;99.90;;;;;;4972261;28;20435;-64
2021/09/20 12:08:09;;;;;;;15.70;14.20;;;20.80;99.90;;;;;;4972576;28;20494;-64
2021/09/20 12:10:39;;;;;;;15.30;13.93;;;20.60;99.90;;;;;;4961630;28;21012;-64
2021/09/20 12:13:08;;;;;;;14.67;13.27;;;20.50;99.90;;;;;;4972897;28;20430;-65
2021/09/20 12:15:37;;;;;;;15.00;13.50;;;20.50;99.90;;;;;;4972783;28;20440;-65
2021/09/20 12:18:13;;;;;;;14.73;13.33;;;20.50;99.90;;;;;;4971048;28;20428;-65
2021/09/20 12:20:44;;;;;;;17.60;15.23;;;20.30;99.90;;;;;;4972924;28;20503;-64
2021/09/20 12:23:29;;;;;;;16.80;15.20;;;20.10;99.90;;;;;;4969368;28;20454;-64
2021/09/20 12:26:00;;;;;;;15.80;13.73;;;19.70;99.90;;;;;;4971823;28;20434;-64
2021/09/20 12:28:33;;;;;;;14.60;13.33;;;19.50;99.90;;;;;;4972395;28;20443;-64
2021/09/20 12:30:59;;;;;;;14.80;13.30;;;19.50;99.90;;;;;;4971113;28;20475;-65
2021/09/20 12:33:26;;;;;;;15.50;14.00;;;19.40;99.90;;;;;;4972769;28;21024;-64
2021/09/20 12:35:52;;;;;;;14.43;12.97;;;19.30;99.90;;;;;;4972608;28;20169;-65
2021/09/20 12:38:27;;;;;;;14.20;12.80;;;19.20;99.90;;;;;;4972523;28;20805;-67